Jason Murray

Chefscout - Tranmere Rovers
3 Apr 2027
Samstag
Verarbeitung

Persönlichkeit

Anpassungsfähigkeit (19) Ehrgeiz (12) Kontroverse (6) Loyalität (3) Druck (13) Professionalität (1) Fairness (8) Temperament (13)

Profil

Trainerstil Demokratisch
Lizenz Nationale B
Entschlossenheit 7
Menschenführung 5
Motivation 6
Disziplin 7
Arbeitszufriedenheit
64%
Ermüdung
0%
Rolle Chefscout
Gehalt 61.7K p/W
Vertrag 14.03.2028

Leistung

Verhalten Gut
Trainingseffektivität
23%
Spielerentwicklung
15%
Verletzungsprävention
25%
Taktische Umsetzung
30%

Letzte Ereignisse

Spieler begutachtet jetzt
Nahm an einer Scouting-Besprechung teil jetzt
Empfahl ein Transferziel jetzt
Spieler begutachtet 7T her
Nahm an einer Scouting-Besprechung teil 7T her
Empfahl ein Transferziel 7T her
Spieler begutachtet 7T her
Spieler begutachtet 7T her

Aktuell beobachtet

212
Spieler Verein Status Fähigkeit Vertrauen Beobachtet Zuletzt beobachtet Letzte Stimme
Giovanni Stellato Guidonia Montecelio Aktiv 93 / 90 40% 2 02.04.2027 -
Lorenzo Cordaro Pergolettese Aktiv 108 / 110 40% 1 02.04.2027 -
Ilja Tuseev Chelyabinsk Aktiv 85 / 97 40% 5 30.03.2027 -
Alkalifa Coulibaly Onze Createurs Aktiv 95 / 85 40% 1 30.03.2027 -
Ani Ozoemena Rivers United Aktiv 87 / 95 40% 2 29.03.2027 -
Sébastien Cibois Portimonense Aktiv 116 / 111 40% 2 29.03.2027 -
Ivan Ponomarenko Podillia Aktiv 77 / 94 40% 2 27.03.2027 -
Sam Waller Harrogate Town Aktiv 94 / 89 40% 1 27.03.2027 -
Brian Bwire Polokwane City Aktiv 81 / 93 40% 3 23.03.2027 -
Célio Hamrun Spartans Aktiv 85 / 77 40% 5 22.03.2027 -
Luka Veličković Benfica Aktiv 91 / 91 40% 1 22.03.2027 -
Maksym Kovaliov Spartak 1918 Aktiv 97 / 95 40% 2 21.03.2027 -
Tommaso Cucchietti Potenza Aktiv 99 / 96 40% 1 20.03.2027 -
Danil Ryazanov Rostov Aktiv 78 / 67 40% 1 20.03.2027 -
Biola Sabitu Remo Stars Aktiv 81 / 94 40% 3 19.03.2027 -
Chisom Chiaha Barau Aktiv 89 / 102 40% 1 19.03.2027 -
Ignacio Colombo Zabbar St. Patrick Aktiv 97 / 85 40% 3 18.03.2027 -
Vasil Simeonov Montana Aktiv 103 / 110 40% 2 18.03.2027 -
Stefan Hubocan FK Senica Aktiv 90 / 91 40% 2 17.03.2027 -
Rashed Al-Tumi Birkirkara Aktiv 76 / 86 40% 5 15.03.2027 -
Oumar Coulibaly Djoliba Aktiv 102 / 97 40% 1 15.03.2027 -
Ikenna Benjamin Bayelsa United Aktiv 80 / 86 40% 2 14.03.2027 -
Felix Kyei Medeama Aktiv 97 / 105 40% 4 13.03.2027 -
Vladislav Zernaev Salyut Aktiv 93 / 72 40% 1 13.03.2027 -
Rostislav Soldatenko Torpedo Moscow Aktiv 109 / 87 40% 3 12.03.2027 -
Yurii-Volodymyr Hereta Rukh Aktiv 103 / 108 40% 4 11.03.2027 -
Bojan Milosavljević Septemvri Aktiv 125 / 99 40% 1 11.03.2027 -
Joke Efevwerha Bloemfontein Celtic Aktiv 85 / 88 40% 5 10.03.2027 -
Lévi Ntumba Slavia Sofia Aktiv 115 / 101 40% 5 07.03.2027 -
Max Metcalfe Nart Aktiv 66 / 73 40% 1 07.03.2027 -
João Valido Chaves Aktiv 109 / 123 40% 2 06.03.2027 -
Mohamed Camara Asante Kotoko Aktiv 87 / 104 40% 2 05.03.2027 -
Denys Ihnatenko Livyi Bereh Aktiv 111 / 98 40% 2 04.03.2027 -
David Sangaré Ryazan Aktiv 80 / 106 40% 1 03.03.2027 -
Ramahlwe Mphela Free State Stars Aktiv 82 / 97 40% 3 02.03.2027 -
Marios Siabanis Volos NPS Aktiv 119 / 128 40% 2 02.03.2027 -
Jerry Isaac Berekum Chelsea Aktiv 74 / 81 40% 2 01.03.2027 -
Andrii Kozhukhar Veres Aktiv 97 / 88 40% 1 01.03.2027 -
Dmytro Matsapura Prykarpattia Aktiv 90 / 92 40% 1 27.02.2027 -
Gonçalo Ribeiro Porto Aktiv 93 / 89 40% 2 26.02.2027 -
Kelvin Ogunga Enyimba Aktiv 102 / 94 40% 1 25.02.2027 -
Dennis Votere Bechem United Aktiv 65 / 78 40% 4 24.02.2027 -
Anton Zhylkin Karpaty Aktiv 112 / 99 40% 1 24.02.2027 -
Gregory Sekyere Aduana Stars Aktiv 75 / 103 40% 3 20.02.2027 -
Jordan Amissah Burton Albion Aktiv 106 / 102 40% 1 20.02.2027 -
Egoitz Arana Real Sociedad Aktiv 98 / 100 40% 1 18.02.2027 -
Volodymyr Makhankov Vorskla Aktiv 114 / 111 40% 4 16.02.2027 -
Lewis Ward Stevenage Aktiv 90 / 87 40% 3 16.02.2027 -
Guilherme Pires Sporting CP Aktiv 95 / 102 40% 1 15.02.2027 -
Marcelin Mbahbi Cotonsport Garoua Aktiv 96 / 104 40% 1 15.02.2027 -
Kwanele Nkabi US Bougouba Aktiv 77 / 82 40% 1 14.02.2027 -
Niccolò Chiorra Casarano Aktiv 108 / 96 40% 1 03.02.2027 -
Akpan Udoh Mosta Aktiv 84 / 81 40% 4 30.01.2027 -
Abdenasser Djoudar JS Saoura Aktiv 103 / 89 40% 1 30.01.2027 -
Percy Kekana Platinum Stars Aktiv 100 / 104 40% 3 29.01.2027 -
Abderrahmane Medjadel ASO Chlef Aktiv 107 / 82 40% 1 29.01.2027 -
Agustín Lastra Estudiantes Aktiv 121 / 117 40% 2 27.01.2027 -
Pedro Miguéis Chertanovo Aktiv 71 / 77 40% 1 26.01.2027 -
Aymen Mouyet Military Production Aktiv 87 / 94 40% 1 25.01.2027 -
Andrija Katić AS Trencin Aktiv 97 / 111 40% 3 23.01.2027 -
Vladyslav Kucheruk Victoriia Sumy Aktiv 94 / 86 40% 1 23.01.2027 -
Vadym Yushchyshyn UCSA Aktiv 93 / 76 40% 1 21.01.2027 -
Petar Zovko Lokomotiv Plovdiv Aktiv 98 / 106 40% 1 19.01.2027 -
Melusi Buthelezi Orlando Pirates Aktiv 100 / 98 40% 1 19.01.2027 -
Josh Smith Accrington Stanley Aktiv 69 / 85 62% 1 18.01.2027 Befürworten
Edoardo Colombo Gzira United Aktiv 94 / 90 40% 2 16.01.2027 -
Timur Akmurzin Dinamo Bryansk Aktiv 99 / 96 40% 1 15.01.2027 -
Andrey Bondar' Spartak Tambov Aktiv 80 / 64 40% 1 13.01.2027 -
Mohammed Galadima Inter Allies Abgelehnt 83 / 91 40% 2 12.01.2027 Mehr Infos nötig
Yanis Hénin Aswan Aktiv 84 / 73 40% 1 09.01.2027 -
Maksym Kovalenko Probiy Aktiv 84 / 78 40% 1 05.01.2027 -
Tom Watson Spartak Myjava Aktiv 89 / 90 40% 2 01.01.2027 -
Damir Céter Hamrun Spartans Aktiv 105 / 107 40% 2 30.12.2026 -
Maksym Voitikhovskyi Bukovyna Aktiv 102 / 102 40% 3 30.12.2026 -
Karabo Molefe New Edubiase United Aktiv 89 / 98 40% 1 30.12.2026 -
Georg Stojanovski Spartak 1918 Aktiv 100 / 113 40% 1 27.12.2026 -
Paul Glatzel Swindon Town Aktiv 100 / 105 40% 1 27.12.2026 -
Mohamed El Shami El Masry Aktiv 89 / 93 40% 1 26.12.2026 -
Junior Kemajou-Dimabi Fauve Azur Elite Aktiv 103 / 102 40% 1 26.12.2026 -
Silas Nwankwo Police Union Aktiv 95 / 90 40% 3 24.12.2026 -
Joaquín Enrico San Telmo Aktiv 96 / 123 40% 1 23.12.2026 -
Ifeanyi Emmanuel Niger Tornadoes Aktiv 95 / 101 40% 2 22.12.2026 -
Bohdan Boichuk Bukovyna Aktiv 105 / 98 40% 1 20.12.2026 -
Denys Rezepov Nyva Aktiv 89 / 84 40% 1 19.12.2026 -
Robert Murić Floriana Aktiv 105 / 108 40% 1 19.12.2026 -
Jacobo Alcalde SKA Khabarovsk Aktiv 107 / 98 40% 1 18.12.2026 -
Bruno Gomes Valletta Aktiv 91 / 93 40% 5 17.12.2026 -
Humphrey Katasi AFC Leopards Aktiv 101 / 99 40% 2 17.12.2026 -
Vladyslav Vakula Obolon Aktiv 87 / 114 40% 1 17.12.2026 -
Andrii Khoma Chornomorets Aktiv 90 / 99 40% 1 14.12.2026 -
Viktor Hamsik FK Senica Aktiv 91 / 99 40% 3 12.12.2026 -
Sebastian Soto ES Ben Aknoun Aktiv 108 / 102 40% 1 10.12.2026 -
Moses Twum Haras El Hodoud Aktiv 104 / 104 40% 1 09.12.2026 -
Ilja Stefanovich Leningradets Aktiv 85 / 77 40% 1 09.12.2026 -
Víctor Cabezas Union Magdalena Abgelehnt 113 / 128 40% 2 08.12.2026 Mehr Infos nötig
Insa Badji Smouha Aktiv 87 / 110 40% 1 08.12.2026 -
Jurica Poldrugač Rudes Aktiv 118 / 109 40% 2 06.12.2026 -
Elliott List Northampton Town Aktiv 83 / 90 40% 1 04.12.2026 -
Ezequiel Almirón Estudiantes Aktiv 115 / 123 40% 1 04.12.2026 -
Marcel Reguła Zaglebie Aktiv 101 / 113 40% 1 02.12.2026 -
Ethan Hoard OFK Beograd Aktiv 91 / 92 40% 2 01.12.2026 -
Matías Samaniego Talleres Aktiv 101 / 113 40% 1 01.12.2026 -
Marcelo Torres Gimnasia La Plata Aktiv 130 / 131 40% 5 30.11.2026 -
Claudio Salto Almagro Aktiv 95 / 118 40% 2 30.11.2026 -
Vincent Edafe Warri Wolves Aktiv 82 / 103 40% 2 30.11.2026 -
Evidence Mokoena Platinum Stars Aktiv 93 / 108 40% 4 28.11.2026 -
Benjamin Nyarko Admira Wacker Aktiv 85 / 91 40% 1 28.11.2026 -
Dmytro Shastal Livyi Bereh Aktiv 114 / 82 40% 2 27.11.2026 -
Ivan Bendera Epicentr Aktiv 84 / 94 40% 1 26.11.2026 -
Claudio Villagra Godoy Cruz Aktiv 99 / 94 40% 2 25.11.2026 -
Ivan Luquetta Neftekhimik Aktiv 99 / 86 40% 2 25.11.2026 -
Alejandro Melo Temperley Aktiv 103 / 122 40% 3 24.11.2026 -
Gonzalo Berterame Morón Aktiv 110 / 113 40% 2 24.11.2026 -
Tomislav Adolf Tomić Dugopolje Aktiv 117 / 103 40% 1 24.11.2026 -
Anthony Lokosa Tarxien Rainbows Aktiv 98 / 102 40% 1 23.11.2026 -
Marko Dabro Slaven Belupo Aktiv 123 / 119 40% 1 23.11.2026 -
Alexandr Dolgov Amkar Aktiv 83 / 87 40% 1 22.11.2026 -
Javi Zarzo Viitorul Aktiv 93 / 107 40% 2 20.11.2026 -
Tomás Bolzicco Chaco For Ever Aktiv 109 / 119 40% 2 19.11.2026 -
Davor Matijaš HNK Gorica Aktiv 118 / 116 40% 1 19.11.2026 -
Ivan Pakholiuk Kolos Aktiv 120 / 118 40% 1 19.11.2026 -
Andrija Majdevac Napredak Aktiv 98 / 91 40% 3 15.11.2026 -
Samuel Tetteh Wa All Stars Aktiv 111 / 107 40% 2 15.11.2026 -
Mattia Chiesa ND Gorica Aktiv 99 / 96 40% 1 15.11.2026 -
Sergiu Ratiu Pandurii Aktiv 111 / 108 40% 1 15.11.2026 -
Brian Opondo Kakamega Homeboyz Aktiv 79 / 103 40% 2 14.11.2026 -
Mustapha Lawal Shooting Stars Aktiv 77 / 92 40% 2 13.11.2026 -
Stefan Vukić Rudes Aktiv 113 / 114 40% 2 11.11.2026 -
Octavio Bianchi HNK Vukovar 1991 Aktiv 100 / 119 40% 3 11.11.2026 -
Kagiso Malinga Bidvest Wits Aktiv 97 / 95 40% 3 10.11.2026 -
John Amah Plateau United Abgelehnt 94 / 96 40% 2 10.11.2026 Mehr Infos nötig
Jules-Anthony Vilsaint Toronto FC Aktiv 104 / 108 40% 1 10.11.2026 -
Karlo Sentić Slaven Belupo Aktiv 103 / 113 40% 1 10.11.2026 -
Samuel Amoah Liberty Professionals Aktiv 105 / 108 40% 3 07.11.2026 -
Lucas González Estudiantes Aktiv 110 / 101 40% 2 07.11.2026 -
Ivan Božić Cibalia Aktiv 95 / 87 40% 1 06.11.2026 -
Lucas Cano All Boys Aktiv 114 / 126 40% 2 05.11.2026 -
David Barbona Defensa y Justicia Aktiv 117 / 113 40% 3 04.11.2026 -
Victor Mbaoma Tusker Aktiv 112 / 111 40% 1 02.11.2026 -
Felipe Fernández Vorskla Aktiv 94 / 104 40% 2 31.10.2026 -
Brayan Hurtado Antofagasta Aktiv 89 / 107 40% 1 28.10.2026 -
Anthony Scully Admira Wacker Aktiv 100 / 82 40% 1 28.10.2026 -
Somila Ntsundwana Bidvest Wits Aktiv 88 / 84 40% 3 26.10.2026 -
Marcos Machado Mitre Aktiv 108 / 110 40% 1 24.10.2026 -
Sebastián Parada San Luis Aktiv 106 / 85 40% 1 23.10.2026 -
Igor Ivanović Radnik Surdulica Aktiv 107 / 115 40% 1 23.10.2026 -
Santiago Apa All Boys Aktiv 96 / 96 40% 1 22.10.2026 -
Emiliano Marcondes OB Aktiv 106 / 120 40% 2 18.10.2026 -
Isak Pettersson IF Elfsborg Aktiv 109 / 93 40% 1 18.10.2026 -
Thomas Agyepong Berekum Chelsea Aktiv 85 / 105 40% 1 17.10.2026 -
Suleiman Abdullahi Military Production Aktiv 83 / 99 40% 1 17.10.2026 -
Nicolás Orellana Audax Italiano Aktiv 110 / 119 40% 2 16.10.2026 -
Enzo Cabrera Danubio Aktiv 117 / 122 40% 2 15.10.2026 -
Jhonathan Caicedo Arda Aktiv 96 / 86 40% 1 13.10.2026 -
Albek Gongapshev Shinnik Aktiv 86 / 88 40% 1 13.10.2026 -
Metod Jurhar Voluntari Aktiv 119 / 93 40% 1 13.10.2026 -
Bairon Monroy San Marcos de Arica Aktiv 101 / 77 40% 2 11.10.2026 -
Isaac Walker Charlotte Football Club Aktiv 92 / 78 40% 1 11.10.2026 -
Kimani Stewart-Baynes Colorado Rapids Aktiv 97 / 94 40% 1 06.10.2026 -
Magnus Lankhof Dahlby Stabaek Aktiv 94 / 102 40% 1 06.10.2026 -
Tomás Ahumada Audax Italiano Aktiv 119 / 108 40% 1 06.10.2026 -
Facundo Vila Estudiantes Aktiv 95 / 92 40% 1 06.10.2026 -
Fiacre Ntwari Kaizer Chiefs Aktiv 111 / 101 40% 1 04.10.2026 -
Bonphas Munyasa KCB Aktiv 79 / 79 40% 1 04.10.2026 -
Juan Cruz Zurbriggen San Telmo Aktiv 91 / 109 40% 1 01.10.2026 -
Germán Cervera Alvarado Aktiv 89 / 97 40% 1 01.10.2026 -
Brandon Caicedo Atletico Bucaramanga Aktiv 93 / 91 40% 2 30.09.2026 -
Đorđe Nikolić Cukaricki Aktiv 122 / 107 40% 1 29.09.2026 -
Matteo Cardinali Hibernians Aktiv 88 / 87 40% 1 28.09.2026 -
Daniel Barden Lucko Aktiv 88 / 101 40% 1 28.09.2026 -
Sebastian Hernandez Cortulua Aktiv 129 / 107 40% 1 27.09.2026 -
Akpan Nsikak-Abong Kun Khalifat Aktiv 92 / 89 40% 1 27.09.2026 -
Joe Abrigo Palestino Aktiv 104 / 112 40% 2 25.09.2026 -
Nelson Da Silva Palestino Aktiv 97 / 103 40% 1 25.09.2026 -
Tom Barlow FC Cincinnati Aktiv 87 / 91 40% 2 24.09.2026 -
Diego Sánchez Progreso Aktiv 94 / 91 40% 1 24.09.2026 -
Facundo Pons San Martín Aktiv 119 / 105 40% 1 21.09.2026 -
Juan Mendoza Güemes Aktiv 116 / 106 40% 1 21.09.2026 -
Olwethu Ncube Golden Arrows Aktiv 102 / 83 40% 1 20.09.2026 -
Facundo Castro Nueva Chicago Aktiv 105 / 103 40% 3 18.09.2026 -
Ozovehe Adeiza Shooting Stars Aktiv 92 / 101 40% 1 18.09.2026 -
Owen Foster Huesca Aktiv 87 / 81 40% 1 18.09.2026 -
Darío Rostagno Estudiantes Aktiv 117 / 107 40% 1 16.09.2026 -
Franco Pérez Boston River Aktiv 99 / 110 40% 2 13.09.2026 -
Kevin Méndez Union La Calera Aktiv 99 / 103 40% 2 12.09.2026 -
Genaro Rossi San Martín SJ Aktiv 93 / 126 40% 1 11.09.2026 -
Samuel Adegbenro Dynamo Kyiv Aktiv 122 / 128 40% 1 11.09.2026 -
Jimmy Evans Universidad Catolica Aktiv 109 / 119 40% 2 09.09.2026 -
Kristian Eriksen Molde Aktiv 134 / 124 40% 1 09.09.2026 -
Renzo Reynaga Patronato Aktiv 104 / 117 40% 1 05.09.2026 -
Thokozani Khumalo Golden Arrows Aktiv 81 / 108 40% 1 05.09.2026 -
Thiago Vecino O'Higgins Aktiv 88 / 113 40% 1 04.09.2026 -
Santiago Cubides Jaguares Aktiv 88 / 93 40% 1 01.09.2026 -
Ignacio Yepez Cerrito Aktiv 122 / 103 40% 1 01.09.2026 -
Angelo Van Rooi Golden Arrows Aktiv 98 / 95 40% 1 29.08.2026 -
Rodrigo Rivero Wanderers Aktiv 122 / 120 40% 1 27.08.2026 -
Claudio Campostrini All Boys Aktiv 109 / 120 40% 1 26.08.2026 -
Nicolás Sosa Racing Aktiv 100 / 119 40% 1 24.08.2026 -
Matías Gallegos Antofagasta Aktiv 87 / 85 40% 1 23.08.2026 -
Pablo López Tacuarembo Aktiv 113 / 86 40% 1 18.08.2026 -
Axel Pérez Cerrito Aktiv 99 / 93 40% 1 17.08.2026 -
Sebastián da Silva Racing Aktiv 122 / 110 40% 1 17.08.2026 -
Sammy Seabi Chippa United Aktiv 109 / 120 40% 1 12.08.2026 -
Williams Erasmus Platinum Stars Aktiv 108 / 101 40% 1 12.08.2026 -
André Vidigal ENPPI Aktiv 104 / 92 40% 1 11.08.2026 -
Luca Petrasso CF Montreal Aktiv 100 / 115 40% 1 11.08.2026 -
Pedro Soma San Diego Football Club Aktiv 100 / 107 40% 1 10.08.2026 -
Alpha Onyango Gor Mahia Aktiv 91 / 90 40% 1 10.08.2026 -
Juan Camilo Roa Aguilas Doradas Aktiv 126 / 133 40% 1 03.08.2026 -
Franco Negri Houston Dynamo Aktiv 117 / 98 40% 1 03.08.2026 -
Jackson Hopkins DC United Aktiv 106 / 98 40% 1 02.08.2026 -
Cesar Ruvalcaba Columbus Crew Aktiv 98 / 93 40% 1 02.08.2026 -